createdAt,value
2018-07-25T00:02:00.986Z,7.80
2018-07-25T00:07:06.091Z,7.60
2018-07-25T00:12:09.180Z,7.00
2018-07-25T00:17:12.325Z,7.40
2018-07-25T00:22:16.514Z,7.50
2018-07-25T00:27:19.635Z,7.87
2018-07-25T00:32:23.271Z,7.60
2018-07-25T00:37:26.315Z,7.93
2018-07-25T00:42:29.375Z,7.73
2018-07-25T00:47:33.962Z,9.13
2018-07-25T00:52:37.039Z,8.80
2018-07-25T00:57:40.355Z,8.20
2018-07-25T01:02:43.425Z,7.60
2018-07-25T01:07:46.741Z,7.90
2018-07-25T01:12:49.820Z,7.50
2018-07-25T01:17:52.897Z,11.23
2018-07-25T01:22:56.069Z,10.93
2018-07-25T01:27:59.239Z,7.80
2018-07-25T01:33:02.426Z,6.93
2018-07-25T01:38:05.566Z,7.60
2018-07-25T01:43:09.553Z,6.80
2018-07-25T01:48:12.588Z,6.83
2018-07-25T01:53:15.678Z,6.90
2018-07-25T01:58:18.768Z,6.77
2018-07-25T02:03:21.818Z,6.63
2018-07-25T02:08:24.883Z,6.23
2018-07-25T02:13:27.950Z,5.77
2018-07-25T02:18:31.123Z,6.93
2018-07-25T02:23:34.182Z,5.90
2018-07-25T02:28:37.236Z,6.20
2018-07-25T02:33:45.741Z,6.30
2018-07-25T02:38:49.878Z,6.30
2018-07-25T02:43:53.026Z,5.83
2018-07-25T02:48:56.089Z,6.00
2018-07-25T02:53:59.208Z,6.90
2018-07-25T02:59:03.177Z,7.57
2018-07-25T03:04:06.285Z,6.40
2018-07-25T03:09:10.145Z,5.83
2018-07-25T03:14:13.245Z,6.20
2018-07-25T03:19:16.580Z,5.80
2018-07-25T03:24:19.732Z,6.13
2018-07-25T03:29:22.864Z,6.60
2018-07-25T03:34:25.924Z,6.53
2018-07-25T03:39:28.990Z,6.60
2018-07-25T03:44:32.052Z,5.93
2018-07-25T03:49:35.121Z,6.70
2018-07-25T03:54:39.222Z,6.70
2018-07-25T03:59:42.610Z,6.50
2018-07-25T04:04:48.151Z,6.63
2018-07-25T04:09:51.294Z,6.30
2018-07-25T04:14:54.709Z,7.43
2018-07-25T04:19:57.831Z,6.43
2018-07-25T04:25:01.019Z,6.47
2018-07-25T04:30:05.274Z,6.20
2018-07-25T04:35:09.374Z,6.10
2018-07-25T04:40:12.516Z,5.50
2018-07-25T04:45:15.609Z,5.70
2018-07-25T04:50:18.823Z,5.90
2018-07-25T04:55:21.856Z,5.90
2018-07-25T05:00:24.813Z,5.80
2018-07-25T05:05:27.868Z,6.00
2018-07-25T05:10:30.973Z,5.80
2018-07-25T05:15:34.109Z,5.67
2018-07-25T05:20:37.361Z,5.50
2018-07-25T05:25:40.427Z,5.33
2018-07-25T05:30:43.478Z,5.80
2018-07-25T05:35:46.546Z,5.90
2018-07-25T05:40:49.689Z,6.17
2018-07-25T05:45:52.766Z,5.73
2018-07-25T05:50:55.831Z,9.57
2018-07-25T05:55:58.906Z,6.30
2018-07-25T06:01:02.012Z,8.40
2018-07-25T06:06:05.282Z,6.50
2018-07-25T06:11:08.372Z,5.03
2018-07-25T06:16:11.564Z,8.87
2018-07-25T06:21:15.662Z,5.00
2018-07-25T06:26:18.795Z,8.33
2018-07-25T06:31:21.985Z,7.77
2018-07-25T06:36:26.187Z,5.27
2018-07-25T06:41:29.319Z,9.90
2018-07-25T06:46:32.465Z,11.20
2018-07-25T06:51:35.869Z,5.30
2018-07-25T06:56:38.994Z,4.60
2018-07-25T07:01:42.086Z,4.17
2018-07-25T07:06:45.279Z,3.93
2018-07-25T07:11:48.319Z,4.10
2018-07-25T07:16:51.389Z,9.17
2018-07-25T07:21:54.757Z,5.40
2018-07-25T07:26:57.673Z,2.57
2018-07-25T07:32:00.621Z,3.57
2018-07-25T07:37:05.510Z,3.20
2018-07-25T07:42:08.564Z,2.87
2018-07-25T07:47:13.061Z,2.60
2018-07-25T07:52:16.322Z,3.27
2018-07-25T07:57:19.410Z,3.17
2018-07-25T08:02:22.536Z,3.03
2018-07-25T08:07:25.632Z,2.50
2018-07-25T08:12:28.673Z,2.47
2018-07-25T08:17:31.853Z,2.10
2018-07-25T08:22:35.029Z,3.20
2018-07-25T08:27:38.300Z,9.83
2018-07-25T08:32:41.367Z,7.27
2018-07-25T08:37:44.468Z,3.53
2018-07-25T08:42:47.557Z,2.43
2018-07-25T08:47:50.673Z,2.07
2018-07-25T08:52:53.785Z,2.27
2018-07-25T08:57:56.915Z,6.57
2018-07-25T09:03:00.091Z,6.30
2018-07-25T09:08:03.136Z,4.23
2018-07-25T09:13:06.614Z,2.73
2018-07-25T09:18:09.729Z,2.47
2018-07-25T09:23:12.767Z,4.63
2018-07-25T09:28:15.851Z,6.53
2018-07-25T09:33:18.907Z,4.03
2018-07-25T09:38:21.985Z,2.87
2018-07-25T09:43:25.084Z,3.50
2018-07-25T09:48:28.054Z,3.30
2018-07-25T09:53:31.126Z,3.80
2018-07-25T09:58:34.193Z,3.60
2018-07-25T10:03:37.287Z,3.37
2018-07-25T10:08:40.402Z,3.83
2018-07-25T10:13:43.436Z,2.70
2018-07-25T10:18:46.612Z,2.50
2018-07-25T10:23:49.677Z,2.80
2018-07-25T10:28:52.770Z,2.63
2018-07-25T10:33:55.864Z,2.50
2018-07-25T10:38:59.054Z,2.80
2018-07-25T10:44:02.155Z,3.93
2018-07-25T10:49:05.429Z,2.63
2018-07-25T10:54:08.495Z,2.40
2018-07-25T10:59:11.617Z,2.70
2018-07-25T11:04:14.676Z,2.50
2018-07-25T11:09:17.910Z,2.90
2018-07-25T11:14:21.008Z,2.13
2018-07-25T11:19:24.110Z,2.70
2018-07-25T11:24:27.198Z,2.50
2018-07-25T11:29:30.357Z,3.37
2018-07-25T11:34:33.466Z,3.17
2018-07-25T11:39:36.565Z,3.60
2018-07-25T11:44:39.771Z,3.00
2018-07-25T11:49:42.965Z,2.73
2018-07-25T11:54:46.273Z,2.63
2018-07-25T11:59:49.365Z,3.00
2018-07-25T12:04:52.447Z,3.10
2018-07-25T12:09:55.540Z,2.90
2018-07-25T12:14:58.616Z,3.40
2018-07-25T12:20:01.721Z,4.67
2018-07-25T12:25:05.781Z,3.07
2018-07-25T12:30:09.765Z,3.83
2018-07-25T12:35:12.828Z,3.20
2018-07-25T12:40:16.001Z,2.77
2018-07-25T12:45:19.125Z,2.87
2018-07-25T12:50:22.207Z,3.10
2018-07-25T12:55:25.346Z,2.57
2018-07-25T13:00:28.578Z,2.60
2018-07-25T13:05:31.652Z,2.67
2018-07-25T13:10:34.878Z,2.57
2018-07-25T13:15:38.003Z,2.47
2018-07-25T13:20:41.092Z,2.77
2018-07-25T13:25:44.268Z,3.77
2018-07-25T13:30:47.318Z,2.57
2018-07-25T13:35:50.383Z,2.60
2018-07-25T13:40:53.465Z,3.03
2018-07-25T13:45:56.532Z,2.67
2018-07-25T13:50:59.590Z,2.90
2018-07-25T13:56:02.730Z,3.07
2018-07-25T14:01:05.832Z,3.10
2018-07-25T14:06:08.944Z,2.57
2018-07-25T14:11:12.590Z,2.80
2018-07-25T14:16:15.663Z,2.60
2018-07-25T14:21:18.723Z,2.47
2018-07-25T14:26:21.834Z,3.40
2018-07-25T14:31:24.805Z,4.17
2018-07-25T14:36:27.857Z,2.70
2018-07-25T14:41:30.943Z,2.83
2018-07-25T14:46:34.359Z,2.30
2018-07-25T14:51:37.528Z,2.43
2018-07-25T14:56:40.621Z,3.60
2018-07-25T15:01:43.675Z,2.10
2018-07-25T15:06:46.880Z,2.30
2018-07-25T15:11:49.983Z,2.30
2018-07-25T15:16:53.047Z,2.37
2018-07-25T15:21:56.232Z,2.33
2018-07-25T15:26:59.313Z,2.00
2018-07-25T15:32:02.422Z,2.17
2018-07-25T15:37:05.548Z,2.00
2018-07-25T15:42:08.635Z,2.50
2018-07-25T15:47:12.553Z,2.47
2018-07-25T15:52:15.612Z,2.20
2018-07-25T15:57:18.730Z,1.77
2018-07-25T16:02:21.800Z,2.07
2018-07-25T16:07:24.961Z,2.37
2018-07-25T16:12:28.182Z,2.67
2018-07-25T16:17:31.230Z,2.13
2018-07-25T16:22:34.327Z,2.33
2018-07-25T16:27:37.428Z,2.20
2018-07-25T16:32:40.576Z,2.50
2018-07-25T16:37:43.628Z,2.40
2018-07-25T16:42:46.756Z,2.57
2018-07-25T16:47:49.868Z,2.47
2018-07-25T16:52:53.597Z,2.27
2018-07-25T16:57:56.717Z,2.27
2018-07-25T17:09:07.791Z,2.53
2018-07-25T17:14:10.903Z,2.70
2018-07-25T17:19:15.190Z,3.50
2018-07-25T17:24:18.225Z,2.40
2018-07-25T17:29:21.121Z,2.50
2018-07-25T17:34:24.217Z,2.90
2018-07-25T17:39:27.302Z,2.60
2018-07-25T17:44:30.356Z,2.77
2018-07-25T17:49:33.487Z,2.83
2018-07-25T17:54:37.592Z,2.63
2018-07-25T17:59:40.632Z,2.90
2018-07-25T18:04:43.708Z,3.03
2018-07-25T18:09:46.896Z,3.10
2018-07-25T18:14:49.924Z,3.17
2018-07-25T18:19:53.000Z,3.60
2018-07-25T18:24:56.111Z,3.40
2018-07-25T18:29:59.272Z,3.10
2018-07-25T18:35:02.354Z,3.40
2018-07-25T18:40:05.697Z,3.70
2018-07-25T18:45:08.758Z,3.70
2018-07-25T18:50:12.023Z,13.80
2018-07-25T18:55:15.205Z,5.33
2018-07-25T19:00:18.324Z,6.83
2018-07-25T19:05:25.655Z,4.50
2018-07-25T19:10:28.864Z,4.20
2018-07-25T19:15:33.236Z,5.00
2018-07-25T19:20:36.205Z,5.03
2018-07-25T19:25:39.282Z,4.37
2018-07-25T19:30:42.494Z,4.90
2018-07-25T19:35:46.594Z,4.70
2018-07-25T19:40:49.653Z,4.67
2018-07-25T19:45:52.798Z,4.97
2018-07-25T19:50:55.938Z,4.20
2018-07-25T19:55:58.973Z,4.53
2018-07-25T20:01:02.065Z,4.00
2018-07-25T20:06:05.048Z,3.83
2018-07-25T20:11:08.274Z,4.17
2018-07-25T20:16:11.356Z,4.20
2018-07-25T20:21:14.565Z,5.70
2018-07-25T20:26:17.650Z,4.43
2018-07-25T20:31:20.833Z,6.53
2018-07-25T20:36:23.803Z,4.70
2018-07-25T20:41:26.980Z,3.87
2018-07-25T20:46:30.025Z,4.30
2018-07-25T20:51:33.174Z,4.27
2018-07-25T20:56:36.333Z,4.37
2018-07-25T21:01:39.485Z,4.60
2018-07-25T21:06:42.536Z,4.33
2018-07-25T21:11:45.587Z,3.50
2018-07-25T21:16:48.733Z,3.90
2018-07-25T21:21:51.824Z,4.27
2018-07-25T21:26:54.852Z,4.30
2018-07-25T21:31:57.925Z,4.03
2018-07-25T21:37:01.035Z,3.40
2018-07-25T21:42:04.182Z,4.30
2018-07-25T21:47:07.276Z,4.20
2018-07-25T21:52:10.336Z,4.30
2018-07-25T21:57:13.410Z,4.20
2018-07-25T22:02:16.577Z,3.57
2018-07-25T22:07:19.647Z,3.80
2018-07-25T22:12:22.833Z,3.97
2018-07-25T22:17:26.073Z,4.37
2018-07-25T22:22:29.263Z,4.80
2018-07-25T22:27:32.443Z,4.00
2018-07-25T22:32:35.571Z,4.67
2018-07-25T22:37:38.686Z,3.90
2018-07-25T22:42:41.777Z,4.30
2018-07-25T22:47:44.833Z,4.07
2018-07-25T22:52:47.880Z,4.43
2018-07-25T22:57:50.755Z,4.53
2018-07-25T23:02:53.835Z,3.80
2018-07-25T23:07:57.069Z,4.00
2018-07-25T23:13:00.125Z,4.20
2018-07-25T23:18:03.036Z,4.50
2018-07-25T23:23:06.144Z,4.30
2018-07-25T23:28:09.316Z,4.57
2018-07-25T23:33:12.423Z,4.50
2018-07-25T23:38:15.501Z,5.03
2018-07-25T23:43:18.557Z,4.33
2018-07-25T23:48:22.717Z,4.23
2018-07-25T23:53:25.792Z,5.10
2018-07-25T23:58:28.842Z,4.67
